Columbus Junction, IA (52738)

7:47 AM CST on February 08, 2016 (GMT -0600)
Purdy Hill (Ken) | | Change Station
CLOSE
Current Station
Personal Weather Station
Location: Columbus Junction, IA
Elevation: 656 ft
Nearby Weather Stations

Elev 656 ft 41.28 °N, 91.38 °W | Updated 3 minutes ago

Snow
Snow
18.3 °F
Feels Like 7 °F
N
9.4
Wind Variable Wind from NNW

Today
High -- | Low -- °F
--% Chance of Precip.
Yesterday
High -- | Low -- °F
Precip. -- in
Pressure 29.80 in
Visibility 9.0 miles
Clouds Mostly Cloudy 2400 ft
Mostly Cloudy 2900 ft
Overcast 5500 ft
Windchill 7 °F
Dew Point 11 °F
Humidity 74%
Rainfall 0.00 in
Snow Depth Not available.
7:09 AM 5:30 PM
Waning Crescent, 0% visible
METAR KMUT 081335Z AUTO 31014G23KT 9SM -SN BKN024 BKN029 OVC055 M06/M11 A2980 RMK AO2
Pressure 29.80 in
Visibility 9.0 miles
Clouds Mostly Cloudy 2400 ft
Mostly Cloudy 2900 ft
Overcast 5500 ft
Windchill 7 °F
Dew Point 11 °F
Humidity 74%
Rainfall 0.00 in
Snow Depth Not available.
7:09 AM 5:30 PM
Waning Crescent, 0% visible
METAR KMUT 081335Z AUTO 31014G23KT 9SM -SN BKN024 BKN029 OVC055 M06/M11 A2980 RMK AO2

10-Day Weather Forecast

Almanac

Astronomy

Feb. 08, 2016 Rise Set
Actual Time
Civil Twilight
Nautical Twilight
Astronomical Twilight
Moon
Length of Visible Light
Length of Day
Tomorrow will be .
, % of the Moon is Illuminated

Today's Extremes

State Highs State Lows

Community

WunderPhotos

Upload Photos

1,891,437 photos uploaded!

WunderBlog® & News

Nearby

Air Quality

  Air Quality AQ Index Pollutant
Not available.

Snow Depth

Station Depth Elevation

Earthquake Activity

City Distance Mag. Time & Date
Minimum magnitude displayed is 2.5.

Coastal Water Temperatures

Place Temperature

Stations

Nearby Weather Stations

Station Location Temp. Windchill Dew Point Humidity Wind Precip. Elev Updated Type
                   

Watches & Warnings

There are currently no watches in effect.